Time;durP1;ratioP1;P1;durP2;ratioP2;P2;SDS_P1;SDS_P2;PMS_P1;PMS_P2;Temp;Humidity;BMP_temperature;BMP_pressure;BME280_temperature;BME280_humidity;BME280_pressure;Samples;Min_cycle;Max_cycle;Signal;HPM_P1;HPM_P2
2023/12/23 00:00:57;;;;;;;0.63;0.60;;;3.40;1.00;;;;;;5213555;28;20083;-47
2023/12/23 00:03:30;;;;;;;0.60;0.60;;;3.40;1.00;;;;;;5223548;28;20032;-48
2023/12/23 00:06:02;;;;;;;0.60;0.60;;;3.30;1.00;;;;;;5199500;28;20032;-49
2023/12/23 00:08:36;;;;;;;2.17;0.82;;;3.30;1.00;;;;;;5198223;28;20040;-51
2023/12/23 00:11:08;;;;;;;0.65;0.60;;;3.20;1.00;;;;;;5221430;28;20048;-48
2023/12/23 00:13:44;;;;;;;0.65;0.65;;;3.10;1.00;;;;;;5225485;28;20337;-48
2023/12/23 00:16:15;;;;;;;0.88;0.65;;;3.00;1.00;;;;;;5204861;28;20036;-48
2023/12/23 00:18:46;;;;;;;0.40;0.40;;;3.00;1.00;;;;;;5207051;28;20040;-48
2023/12/23 00:21:18;;;;;;;0.50;0.50;;;2.90;1.00;;;;;;5211073;28;20230;-48
2023/12/23 00:23:49;;;;;;;0.70;0.70;;;2.80;1.00;;;;;;5197703;28;20059;-48
2023/12/23 00:26:20;;;;;;;0.68;0.68;;;2.80;1.00;;;;;;5215594;28;20032;-49
2023/12/23 00:28:52;;;;;;;1.73;0.73;;;2.70;1.00;;;;;;5218164;28;20322;-48
2023/12/23 00:31:23;;;;;;;2.25;0.77;;;2.70;1.00;;;;;;5215003;28;20029;-48
2023/12/23 00:33:57;;;;;;;2.40;0.75;;;2.60;1.00;;;;;;5214996;28;20326;-49
2023/12/23 00:36:33;;;;;;;2.10;1.00;;;2.60;1.00;;;;;;5213027;28;20585;-49
2023/12/23 00:39:04;;;;;;;0.60;0.60;;;2.60;1.00;;;;;;5192544;28;20025;-48
2023/12/23 00:41:37;;;;;;;1.23;0.65;;;2.60;1.00;;;;;;5217050;28;20341;-50
2023/12/23 00:44:13;;;;;;;0.77;0.77;;;2.50;1.00;;;;;;5213929;28;20358;-49
2023/12/23 00:46:46;;;;;;;0.90;0.70;;;2.40;1.00;;;;;;5208977;28;20021;-49
2023/12/23 00:49:20;;;;;;;0.40;0.40;;;2.50;1.00;;;;;;5217506;28;20028;-49
2023/12/23 00:51:54;;;;;;;0.60;0.60;;;2.40;1.00;;;;;;5224259;28;20033;-50
2023/12/23 00:54:25;;;;;;;1.40;0.88;;;2.50;1.00;;;;;;5221399;28;20029;-50
2023/12/23 00:56:57;;;;;;;0.75;0.70;;;2.60;1.00;;;;;;5221745;28;20032;-54
2023/12/23 00:59:30;;;;;;;0.47;0.47;;;2.60;1.00;;;;;;5222290;28;20029;-49
2023/12/23 01:02:05;;;;;;;0.90;0.85;;;2.60;1.00;;;;;;5221114;28;20028;-50
2023/12/23 01:04:36;;;;;;;0.80;0.80;;;2.50;1.00;;;;;;5225763;28;20058;-50
2023/12/23 01:07:07;;;;;;;0.60;0.60;;;2.30;1.00;;;;;;5220687;28;20029;-52
2023/12/23 01:09:38;;;;;;;0.98;0.88;;;2.30;1.00;;;;;;5230362;28;20033;-49
2023/12/23 01:12:12;;;;;;;0.82;0.70;;;2.30;1.00;;;;;;5229074;28;20055;-49
2023/12/23 01:14:45;;;;;;;1.08;0.93;;;2.20;1.00;;;;;;5195399;28;20048;-50
2023/12/23 01:17:16;;;;;;;1.77;1.50;;;2.00;1.00;;;;;;5206988;28;20047;-49
2023/12/23 01:19:48;;;;;;;2.00;1.80;;;2.00;1.00;;;;;;5221676;28;20215;-49
2023/12/23 01:22:19;;;;;;;1.55;1.45;;;1.90;1.00;;;;;;5223195;28;20037;-48
2023/12/23 01:24:50;;;;;;;1.75;1.33;;;1.90;1.00;;;;;;5223861;28;20426;-48
2023/12/23 01:27:24;;;;;;;1.10;1.00;;;1.90;1.00;;;;;;5223264;28;20312;-48
2023/12/23 01:30:03;;;;;;;1.52;1.23;;;1.90;1.00;;;;;;5222835;28;20035;-50
2023/12/23 01:32:37;;;;;;;1.42;1.25;;;2.00;1.00;;;;;;5215766;28;20029;-49
2023/12/23 01:35:19;;;;;;;1.40;1.30;;;2.20;1.00;;;;;;5220529;28;20240;-49
2023/12/23 01:37:51;;;;;;;1.27;1.00;;;2.30;1.00;;;;;;5223214;28;20236;-48
2023/12/23 01:40:22;;;;;;;1.27;1.17;;;2.20;1.00;;;;;;5220750;28;20371;-48
2023/12/23 01:42:56;;;;;;;1.10;1.00;;;2.20;1.00;;;;;;5218477;28;20037;-48
2023/12/23 01:45:27;;;;;;;0.93;0.93;;;2.10;1.00;;;;;;5219389;28;20039;-49
2023/12/23 01:48:01;;;;;;;0.70;0.70;;;2.00;1.00;;;;;;5224240;28;20047;-49
2023/12/23 01:50:38;;;;;;;0.70;0.70;;;1.80;1.00;;;;;;5220434;28;20313;-51
2023/12/23 01:53:14;;;;;;;0.75;0.75;;;1.60;1.00;;;;;;5221313;28;20213;-50
2023/12/23 01:55:46;;;;;;;0.80;0.80;;;1.50;1.00;;;;;;5223540;28;20044;-51
2023/12/23 01:58:18;;;;;;;1.05;0.93;;;1.30;1.00;;;;;;5223377;28;20221;-49
2023/12/23 02:00:50;;;;;;;1.08;1.00;;;1.30;1.00;;;;;;5219777;28;20025;-49
2023/12/23 02:03:21;;;;;;;1.42;1.23;;;1.40;1.00;;;;;;5221852;28;20321;-49
2023/12/23 02:05:57;;;;;;;1.55;1.27;;;1.50;1.00;;;;;;5222728;28;20040;-53
2023/12/23 02:08:33;;;;;;;1.65;1.50;;;1.50;1.00;;;;;;5222444;28;20036;-49
2023/12/23 02:11:07;;;;;;;1.40;1.10;;;1.40;1.00;;;;;;5221122;28;20051;-50
2023/12/23 02:13:51;;;;;;;1.33;1.23;;;1.30;1.00;;;;;;5212242;28;20036;-50
2023/12/23 02:16:22;;;;;;;1.90;1.35;;;1.40;1.00;;;;;;5197892;28;20044;-49
2023/12/23 02:18:56;;;;;;;1.48;1.20;;;1.30;1.00;;;;;;5219584;28;20036;-50
2023/12/23 02:21:27;;;;;;;1.43;1.20;;;1.30;1.00;;;;;;5221624;28;20033;-49
2023/12/23 02:24:00;;;;;;;1.55;1.27;;;1.40;1.00;;;;;;5223399;28;20027;-51
2023/12/23 02:26:36;;;;;;;2.20;1.40;;;1.50;1.00;;;;;;5222436;28;20037;-49
2023/12/23 02:29:11;;;;;;;4.10;1.45;;;1.70;1.00;;;;;;5213708;28;20029;-49
2023/12/23 02:31:46;;;;;;;1.25;1.15;;;1.60;1.00;;;;;;5219541;28;20036;-51
2023/12/23 02:34:21;;;;;;;1.27;1.17;;;1.60;1.00;;;;;;5220665;28;20325;-53
2023/12/23 02:36:57;;;;;;;2.17;1.30;;;1.70;1.00;;;;;;5222817;28;20032;-52
2023/12/23 02:39:29;;;;;;;2.45;1.70;;;1.80;1.00;;;;;;5220905;28;20270;-54
2023/12/23 02:42:02;;;;;;;2.60;1.67;;;2.00;1.00;;;;;;5221995;28;20041;-50
2023/12/23 02:44:37;;;;;;;2.03;1.80;;;2.20;1.00;;;;;;5222005;28;20230;-50
2023/12/23 02:47:13;;;;;;;;;;;2.30;1.00;;;;;;5224012;28;20045;-54
2023/12/23 02:49:44;;;;;;;1.48;1.38;;;2.30;1.00;;;;;;5227867;28;20229;-54
2023/12/23 02:52:15;;;;;;;2.33;1.50;;;2.30;1.00;;;;;;5210510;28;20034;-53
2023/12/23 02:54:49;;;;;;;1.63;1.45;;;2.30;1.00;;;;;;5224240;28;20225;-50
2023/12/23 02:57:26;;;;;;;1.33;1.23;;;2.20;1.00;;;;;;5224912;28;20218;-50
2023/12/23 02:59:57;;;;;;;2.97;1.33;;;2.30;1.00;;;;;;5224809;28;20244;-50
2023/12/23 03:02:28;;;;;;;1.45;1.30;;;2.40;1.00;;;;;;5206308;28;20031;-50
2023/12/23 03:04:59;;;;;;;2.50;1.42;;;2.40;1.00;;;;;;5215930;28;20138;-49
2023/12/23 03:07:31;;;;;;;3.08;1.75;;;2.40;1.00;;;;;;5212650;28;20337;-48
2023/12/23 03:10:05;;;;;;;1.55;1.40;;;2.40;1.00;;;;;;5217683;28;20349;-48
2023/12/23 03:12:43;;;;;;;1.27;1.17;;;2.40;1.00;;;;;;5210111;28;20253;-49
2023/12/23 03:15:14;;;;;;;2.35;1.50;;;2.40;1.00;;;;;;5212281;28;20036;-50
2023/12/23 03:17:45;;;;;;;2.97;1.67;;;2.40;1.00;;;;;;5215383;28;20053;-50
2023/12/23 03:20:17;;;;;;;1.48;1.38;;;2.40;1.00;;;;;;5216712;28;20040;-50
2023/12/23 03:22:50;;;;;;;2.38;1.38;;;2.30;1.00;;;;;;5209991;28;20349;-50
2023/12/23 03:25:24;;;;;;;;;;;2.30;1.00;;;;;;5216226;28;20035;-49
2023/12/23 03:27:55;;;;;;;2.13;1.80;;;2.30;1.00;;;;;;5205965;28;19911;-51
2023/12/23 03:30:26;;;;;;;2.42;1.58;;;2.50;1.00;;;;;;5214430;28;20017;-49
2023/12/23 03:33:04;;;;;;;2.00;1.63;;;2.60;1.00;;;;;;5215145;28;20201;-50
2023/12/23 03:35:37;;;;;;;1.85;1.50;;;2.70;1.00;;;;;;5217194;28;20040;-49
2023/12/23 03:38:11;;;;;;;1.55;1.20;;;2.50;1.00;;;;;;5203100;28;20363;-52
2023/12/23 03:40:44;;;;;;;0.77;0.77;;;2.50;1.00;;;;;;5225985;28;20044;-50
2023/12/23 03:43:16;;;;;;;1.33;0.80;;;2.80;1.00;;;;;;5212703;28;20378;-50
2023/12/23 03:45:47;;;;;;;1.05;0.90;;;3.00;1.00;;;;;;5207584;28;20113;-50
2023/12/23 03:48:23;;;;;;;0.80;0.80;;;3.10;1.00;;;;;;5216318;28;20368;-49
2023/12/23 03:50:55;;;;;;;0.70;0.70;;;3.30;1.00;;;;;;5211994;28;20033;-49
2023/12/23 03:53:31;;;;;;;0.60;0.60;;;3.50;1.00;;;;;;5203589;28;20329;-49
2023/12/23 03:56:10;;;;;;;2.95;0.60;;;3.80;1.00;;;;;;5209293;28;20330;-49
2023/12/23 03:58:47;;;;;;;0.70;0.60;;;3.90;1.00;;;;;;5220541;28;20025;-48
2023/12/23 04:01:23;;;;;;;4.38;0.70;;;4.10;1.00;;;;;;5204857;28;20041;-48
2023/12/23 04:03:54;;;;;;;0.88;0.57;;;4.20;1.00;;;;;;5217401;28;20310;-50
2023/12/23 04:06:27;;;;;;;0.60;0.60;;;4.30;1.00;;;;;;5217865;28;20028;-49
2023/12/23 04:08:59;;;;;;;1.38;0.50;;;4.40;1.00;;;;;;5208753;28;20034;-47
2023/12/23 04:11:40;;;;;;;0.50;0.50;;;4.50;1.00;;;;;;5206918;28;20037;-48
2023/12/23 04:14:16;;;;;;;0.60;0.60;;;4.50;1.00;;;;;;5205602;28;20039;-47
2023/12/23 04:16:47;;;;;;;0.60;0.60;;;4.60;1.00;;;;;;5209490;28;20037;-46
2023/12/23 04:19:18;;;;;;;0.40;0.40;;;4.70;99.90;;;;;;5214632;28;20032;-47
2023/12/23 04:21:50;;;;;;;0.45;0.45;;;4.80;1.00;;;;;;5208597;28;20029;-48
2023/12/23 04:24:26;;;;;;;0.77;0.60;;;4.80;1.00;;;;;;5215652;28;20332;-48
2023/12/23 04:26:59;;;;;;;0.60;0.60;;;4.80;99.90;;;;;;5211322;28;20289;-48
2023/12/23 04:29:35;;;;;;;0.50;0.50;;;4.90;99.90;;;;;;5210269;28;20376;-49
2023/12/23 04:32:06;;;;;;;0.40;0.40;;;5.00;10.50;;;;;;5204844;28;20043;-48
2023/12/23 04:34:40;;;;;;;0.40;0.40;;;5.00;1.00;;;;;;5210476;28;20289;-49
2023/12/23 04:37:12;;;;;;;0.40;0.40;;;5.20;1.00;;;;;;5208378;28;20056;-49
2023/12/23 04:39:43;;;;;;;1.30;0.70;;;5.20;1.00;;;;;;5216944;28;20069;-48
2023/12/23 04:42:15;;;;;;;2.50;0.60;;;5.20;1.00;;;;;;5216710;28;20167;-48
2023/12/23 04:44:48;;;;;;;0.70;0.70;;;5.20;1.00;;;;;;5216485;28;20232;-49
2023/12/23 04:47:22;;;;;;;0.98;0.70;;;5.10;88.70;;;;;;5211618;28;20064;-49
2023/12/23 04:49:56;;;;;;;0.93;0.90;;;5.10;99.90;;;;;;5207230;28;20021;-50
2023/12/23 04:52:29;;;;;;;0.55;0.55;;;5.00;99.90;;;;;;5216259;28;20329;-50
2023/12/23 04:55:04;;;;;;;0.40;0.40;;;4.90;99.90;;;;;;5222149;28;20232;-49
2023/12/23 04:57:36;;;;;;;0.40;0.40;;;4.40;1.00;;;;;;5216107;28;20325;-48
2023/12/23 05:00:11;;;;;;;0.40;0.40;;;4.00;99.90;;;;;;5213299;28;20193;-48
2023/12/23 05:02:45;;;;;;;0.80;0.77;;;3.70;1.00;;;;;;5209652;28;20045;-48
2023/12/23 05:05:24;;;;;;;0.45;0.45;;;3.20;1.00;;;;;;5215883;28;20027;-47
2023/12/23 05:07:55;;;;;;;0.40;0.40;;;2.90;1.00;;;;;;5214646;28;20234;-48
2023/12/23 05:10:26;;;;;;;0.68;0.57;;;2.70;1.00;;;;;;5195241;28;20036;-50
2023/12/23 05:12:58;;;;;;;0.40;0.40;;;2.60;1.00;;;;;;5213955;28;20025;-47
2023/12/23 05:15:29;;;;;;;0.85;0.45;;;2.60;1.00;;;;;;5210502;28;20032;-47
2023/12/23 05:18:01;;;;;;;0.60;0.60;;;2.70;1.00;;;;;;5212108;28;20021;-47
2023/12/23 05:20:37;;;;;;;0.63;0.50;;;2.80;1.00;;;;;;5207708;28;20040;-46
2023/12/23 05:23:08;;;;;;;0.55;0.50;;;2.80;1.00;;;;;;5201308;28;20047;-46
2023/12/23 05:25:42;;;;;;;0.68;0.68;;;3.00;99.90;;;;;;5215496;28;20103;-46
2023/12/23 05:28:18;;;;;;;7.88;0.60;;;3.00;99.90;;;;;;5208292;28;20029;-46
2023/12/23 05:30:49;;;;;;;4.03;0.70;;;3.10;99.90;;;;;;5199712;28;20320;-45
2023/12/23 05:33:24;;;;;;;2.05;0.75;;;3.20;99.90;;;;;;5200166;28;20039;-46
2023/12/23 05:35:57;;;;;;;;;;;3.20;99.90;;;;;;5215685;28;20051;-46
2023/12/23 05:38:28;;;;;;;0.77;0.60;;;3.20;99.90;;;;;;5215406;28;19912;-46
2023/12/23 05:41:03;;;;;;;0.70;0.70;;;3.30;99.90;;;;;;5203910;28;20047;-45
2023/12/23 05:43:34;;;;;;;0.50;0.50;;;3.40;1.00;;;;;;5198010;28;20032;-45
2023/12/23 05:46:05;;;;;;;0.63;0.55;;;3.50;1.00;;;;;;5210706;28;20067;-45
2023/12/23 05:48:37;;;;;;;0.60;0.60;;;3.40;1.00;;;;;;5209503;28;20298;-45
2023/12/23 05:51:11;;;;;;;0.60;0.60;;;3.50;1.00;;;;;;5214715;28;20032;-45
2023/12/23 05:53:45;;;;;;;0.82;0.60;;;3.60;99.90;;;;;;5214833;28;20422;-45
2023/12/23 05:56:16;;;;;;;0.65;0.65;;;3.60;1.00;;;;;;5211702;28;20325;-45
2023/12/23 05:58:50;;;;;;;0.80;0.80;;;3.60;99.90;;;;;;5211648;28;20047;-45
2023/12/23 06:01:22;;;;;;;0.60;0.60;;;3.60;99.90;;;;;;5208413;28;20289;-46
2023/12/23 06:03:53;;;;;;;0.55;0.55;;;3.70;1.00;;;;;;5213738;28;20043;-46
2023/12/23 06:06:24;;;;;;;0.50;0.50;;;3.70;99.90;;;;;;5207370;28;20374;-44
2023/12/23 06:08:55;;;;;;;0.73;0.73;;;3.70;99.90;;;;;;5214268;28;20024;-44
2023/12/23 06:11:29;;;;;;;0.80;0.80;;;3.80;1.00;;;;;;5214613;28;20225;-44
2023/12/23 06:14:01;;;;;;;0.60;0.60;;;3.80;99.90;;;;;;5207866;28;20041;-43
2023/12/23 06:16:40;;;;;;;0.60;0.60;;;3.90;99.90;;;;;;5212698;28;20071;-44
2023/12/23 06:19:12;;;;;;;0.60;0.60;;;3.90;99.90;;;;;;5212253;28;22386;-43
2023/12/23 06:21:46;;;;;;;0.57;0.57;;;4.00;82.70;;;;;;5214764;28;20029;-46
2023/12/23 06:24:20;;;;;;;;;;;4.00;1.00;;;;;;5209019;28;20032;-46
2023/12/23 06:26:51;;;;;;;0.43;0.43;;;4.00;11.10;;;;;;5195740;28;20120;-47
2023/12/23 06:29:22;;;;;;;0.70;0.70;;;4.00;1.00;;;;;;5209921;28;20029;-46
2023/12/23 06:31:54;;;;;;;1.15;0.70;;;4.10;1.00;;;;;;5205707;28;20336;-46
2023/12/23 06:34:25;;;;;;;0.50;0.50;;;4.10;1.00;;;;;;5203652;28;20305;-49
2023/12/23 06:36:57;;;;;;;2.17;0.50;;;4.10;1.00;;;;;;5201911;28;20036;-46
2023/12/23 06:39:28;;;;;;;0.50;0.50;;;4.10;1.00;;;;;;5201959;28;20033;-46
2023/12/23 06:42:04;;;;;;;0.98;0.98;;;4.10;1.00;;;;;;5197080;28;20103;-46
2023/12/23 06:44:35;;;;;;;0.50;0.50;;;4.20;1.00;;;;;;5197705;28;20294;-46
2023/12/23 06:47:09;;;;;;;0.57;0.57;;;4.20;1.00;;;;;;5205819;28;20033;-45
2023/12/23 06:49:40;;;;;;;0.47;0.47;;;4.20;1.00;;;;;;5199560;28;20044;-44
2023/12/23 06:52:17;;;;;;;2.45;0.70;;;4.20;99.90;;;;;;5206069;28;20036;-44
2023/12/23 06:54:48;;;;;;;0.52;0.52;;;4.10;1.00;;;;;;5202130;28;20048;-43
2023/12/23 06:57:22;;;;;;;0.50;0.50;;;4.10;99.90;;;;;;5202915;28;20383;-43
2023/12/23 06:59:54;;;;;;;0.70;0.70;;;4.10;99.90;;;;;;5202250;28;20040;-42
2023/12/23 07:02:26;;;;;;;1.67;0.70;;;4.10;99.90;;;;;;5191015;28;20037;-42
2023/12/23 07:04:57;;;;;;;0.60;0.60;;;4.10;99.90;;;;;;5202378;28;20025;-42
2023/12/23 07:07:31;;;;;;;0.60;0.60;;;4.10;99.90;;;;;;5180389;28;20040;-42
2023/12/23 07:10:03;;;;;;;0.80;0.50;;;4.10;99.90;;;;;;5204484;28;20056;-41
2023/12/23 07:12:34;;;;;;;0.60;0.60;;;4.10;99.90;;;;;;5201266;28;20162;-41
2023/12/23 07:15:09;;;;;;;0.70;0.70;;;4.10;99.90;;;;;;5205113;28;20229;-40
2023/12/23 07:17:40;;;;;;;;;;;4.10;99.90;;;;;;5209075;28;20033;-41
2023/12/23 07:20:14;;;;;;;3.53;0.80;;;4.00;99.90;;;;;;5201585;28;19987;-41
2023/12/23 07:22:46;;;;;;;0.70;0.70;;;3.90;99.90;;;;;;5205114;28;20065;-42
2023/12/23 07:25:20;;;;;;;0.77;0.60;;;3.90;99.90;;;;;;5212870;28;20373;-41
2023/12/23 07:27:54;;;;;;;;;;;3.90;99.90;;;;;;5193019;28;20024;-41
2023/12/23 07:30:33;;;;;;;1.17;0.75;;;3.80;99.90;;;;;;5211200;28;19927;-40
2023/12/23 07:33:07;;;;;;;0.90;0.90;;;3.80;99.90;;;;;;5215026;28;20321;-42
2023/12/23 07:35:39;;;;;;;;;;;3.70;1.00;;;;;;5211204;28;20231;-40
2023/12/23 07:38:10;;;;;;;0.68;0.68;;;3.70;1.00;;;;;;5213308;28;20227;-39
2023/12/23 07:40:44;;;;;;;0.75;0.73;;;3.70;1.00;;;;;;5207534;28;20135;-38
2023/12/23 07:43:16;;;;;;;1.20;0.68;;;3.60;1.00;;;;;;5208216;28;20316;-39
2023/12/23 07:45:47;;;;;;;0.98;0.60;;;3.50;99.90;;;;;;5210859;28;20099;-38
2023/12/23 07:48:26;;;;;;;5.88;0.93;;;3.40;99.90;;;;;;5210932;28;20036;-38
2023/12/23 07:50:57;;;;;;;1.63;0.90;;;3.40;1.00;;;;;;5205780;28;20033;-38
2023/12/23 07:53:29;;;;;;;2.63;0.80;;;3.30;1.00;;;;;;5203930;28;20047;-38
2023/12/23 07:56:07;;;;;;;2.25;0.90;;;3.20;43.50;;;;;;5201358;28;20051;-38
2023/12/23 07:58:41;;;;;;;0.60;0.60;;;3.20;99.90;;;;;;5213219;28;20036;-38
2023/12/23 08:01:12;;;;;;;0.60;0.60;;;3.10;1.00;;;;;;5211545;28;20028;-37
2023/12/23 08:03:44;;;;;;;0.77;0.63;;;3.10;99.90;;;;;;5210688;28;20378;-37
2023/12/23 08:06:18;;;;;;;3.22;0.82;;;3.10;1.00;;;;;;5203942;28;20047;-37
2023/12/23 08:08:49;;;;;;;2.17;0.75;;;3.00;1.00;;;;;;5211829;28;20043;-36
2023/12/23 08:11:23;;;;;;;1.58;0.80;;;3.00;1.00;;;;;;5211521;28;20033;-36
2023/12/23 08:13:57;;;;;;;0.77;0.73;;;2.90;1.00;;;;;;5211638;28;20028;-37
2023/12/23 08:16:33;;;;;;;2.55;0.90;;;2.90;1.00;;;;;;5211221;28;20242;-35
2023/12/23 08:19:05;;;;;;;0.80;0.80;;;2.90;1.00;;;;;;5209493;28;20375;-35
2023/12/23 08:21:36;;;;;;;0.75;0.75;;;2.90;1.00;;;;;;5215498;28;20029;-35
2023/12/23 08:24:07;;;;;;;3.03;0.95;;;2.90;1.00;;;;;;5215032;28;20031;-35
2023/12/23 08:26:41;;;;;;;1.20;1.10;;;2.90;1.00;;;;;;5195105;28;20177;-35
2023/12/23 08:29:12;;;;;;;3.42;0.63;;;2.90;1.00;;;;;;5215076;28;20152;-35
2023/12/23 08:31:49;;;;;;;5.13;0.80;;;2.80;99.90;;;;;;5213205;28;20043;-39
2023/12/23 08:34:21;;;;;;;0.68;0.68;;;2.90;99.90;;;;;;5212409;28;20029;-34
2023/12/23 08:36:54;;;;;;;0.55;0.55;;;2.90;1.00;;;;;;5212774;28;20047;-34
2023/12/23 08:39:25;;;;;;;0.80;0.80;;;2.80;99.90;;;;;;5215516;28;20025;-37
2023/12/23 08:41:56;;;;;;;1.58;0.93;;;2.90;1.00;;;;;;5211834;28;20047;-38
2023/12/23 08:44:28;;;;;;;1.38;1.33;;;2.90;99.90;;;;;;5216464;28;20329;-38
2023/12/23 08:46:59;;;;;;;2.83;0.63;;;2.90;99.90;;;;;;5213356;28;20040;-38
2023/12/23 08:49:30;;;;;;;1.00;0.90;;;2.80;99.90;;;;;;5210765;28;20031;-40
2023/12/23 08:52:01;;;;;;;1.88;0.77;;;2.80;1.00;;;;;;5210794;28;20198;-40
2023/12/23 08:54:38;;;;;;;0.88;0.80;;;2.80;1.00;;;;;;5207352;28;20235;-40
2023/12/23 08:57:12;;;;;;;0.68;0.68;;;2.70;1.00;;;;;;5212928;28;20029;-40
2023/12/23 08:59:43;;;;;;;0.80;0.80;;;2.70;1.00;;;;;;5205519;28;20237;-40
2023/12/23 09:02:19;;;;;;;1.48;0.70;;;2.60;1.00;;;;;;5199449;28;20045;-40
2023/12/23 09:04:51;;;;;;;0.85;0.85;;;2.50;1.00;;;;;;5199689;28;20055;-40
2023/12/23 09:07:24;;;;;;;2.72;0.75;;;2.50;1.00;;;;;;5208345;28;20033;-41
2023/12/23 09:09:55;;;;;;;2.20;0.82;;;2.40;1.00;;;;;;5204647;28;20372;-41
2023/12/23 09:12:35;;;;;;;0.77;0.77;;;2.30;1.00;;;;;;5210967;28;20288;-40
2023/12/23 09:15:09;;;;;;;2.05;0.88;;;2.20;1.00;;;;;;5194776;28;20033;-41
2023/12/23 09:17:40;;;;;;;1.60;1.20;;;2.00;1.00;;;;;;5209609;28;20028;-40
2023/12/23 09:20:11;;;;;;;0.70;0.70;;;1.90;1.00;;;;;;5194993;28;20139;-40
2023/12/23 09:22:43;;;;;;;1.50;0.80;;;1.80;1.00;;;;;;5203205;28;20033;-41
2023/12/23 09:25:16;;;;;;;1.15;0.98;;;1.70;1.00;;;;;;5204477;28;20060;-41
2023/12/23 09:27:47;;;;;;;1.13;0.60;;;1.60;1.00;;;;;;5206694;28;20205;-41
2023/12/23 09:30:19;;;;;;;1.30;1.10;;;1.50;1.00;;;;;;5203231;28;20043;-42
2023/12/23 09:32:53;;;;;;;1.17;1.00;;;1.40;1.00;;;;;;5209448;28;20027;-38
2023/12/23 09:35:29;;;;;;;0.82;0.70;;;1.40;1.00;;;;;;5193225;28;20365;-45
2023/12/23 09:38:00;;;;;;;0.80;0.77;;;1.40;1.00;;;;;;5209100;28;20041;-45
2023/12/23 09:40:31;;;;;;;0.77;0.73;;;1.30;1.00;;;;;;5195198;28;20312;-46
2023/12/23 09:43:07;;;;;;;0.98;0.88;;;1.30;1.00;;;;;;5188751;28;20063;-47
2023/12/23 09:45:40;;;;;;;2.80;1.25;;;1.30;1.00;;;;;;5197765;28;20481;-47
2023/12/23 09:48:11;;;;;;;1.55;1.27;;;1.30;1.00;;;;;;5206998;28;20033;-48
2023/12/23 09:50:45;;;;;;;6.50;3.10;;;1.20;1.00;;;;;;5198429;28;20186;-49
2023/12/23 09:53:21;;;;;;;4.40;1.50;;;1.20;1.00;;;;;;5187607;28;20024;-53
2023/12/23 09:55:52;;;;;;;2.17;1.20;;;1.20;1.00;;;;;;5209339;28;20249;-50
2023/12/23 09:58:23;;;;;;;1.48;0.98;;;1.20;1.00;;;;;;5195242;28;20032;-56
2023/12/23 10:00:55;;;;;;;1.85;1.30;;;1.10;1.00;;;;;;5208192;28;20043;-53
2023/12/23 10:03:29;;;;;;;3.45;2.30;;;1.10;1.00;;;;;;5207978;28;20139;-54
2023/12/23 10:06:03;;;;;;;1.60;1.50;;;1.10;1.00;;;;;;5198306;28;20040;-48
2023/12/23 10:08:36;;;;;;;1.90;1.48;;;1.10;1.00;;;;;;5211574;28;20036;-50
2023/12/23 10:11:08;;;;;;;2.53;1.83;;;1.20;1.00;;;;;;5209852;28;20028;-50
2023/12/23 10:13:41;;;;;;;2.95;1.85;;;1.20;1.00;;;;;;5211726;28;20029;-53
2023/12/23 10:16:15;;;;;;;3.40;2.13;;;1.20;1.00;;;;;;5206597;28;20035;-51
2023/12/23 10:18:49;;;;;;;3.67;1.65;;;1.20;1.00;;;;;;5203554;28;20052;-49
2023/12/23 10:21:20;;;;;;;2.03;1.67;;;1.20;1.00;;;;;;5210850;28;20236;-47
2023/12/23 10:23:55;;;;;;;3.15;1.95;;;1.10;1.00;;;;;;5211760;28;20039;-50
2023/12/23 10:26:30;;;;;;;3.33;2.15;;;1.10;1.00;;;;;;5210893;28;20036;-51
2023/12/23 10:29:04;;;;;;;1.90;1.65;;;1.10;1.00;;;;;;5200856;28;20056;-55
2023/12/23 10:31:36;;;;;;;4.00;2.30;;;1.10;1.00;;;;;;5196070;28;20028;-50
2023/12/23 10:34:12;;;;;;;4.70;2.55;;;1.10;1.00;;;;;;5210536;28;20024;-52
2023/12/23 10:36:44;;;;;;;3.47;2.47;;;1.00;1.00;;;;;;5208348;28;20064;-58
2023/12/23 10:39:22;;;;;;;3.20;2.10;;;1.00;1.00;;;;;;5208897;28;20029;-58
2023/12/23 10:41:59;;;;;;;5.03;2.60;;;1.10;1.00;;;;;;5209313;28;20025;-55
2023/12/23 10:44:31;;;;;;;8.00;2.38;;;1.00;1.00;;;;;;5209604;28;20044;-53
2023/12/23 10:47:08;;;;;;;3.80;2.78;;;1.00;1.00;;;;;;5207802;28;20194;-55
2023/12/23 10:49:42;;;;;;;5.80;3.22;;;1.10;1.00;;;;;;5205379;28;20025;-55
2023/12/23 10:52:15;;;;;;;3.50;2.95;;;1.10;1.00;;;;;;5210203;28;20228;-55
2023/12/23 10:54:48;;;;;;;4.07;2.80;;;1.20;1.00;;;;;;5207166;28;20025;-48
2023/12/23 10:57:22;;;;;;;3.65;2.88;;;1.10;1.00;;;;;;5207125;28;20229;-48
2023/12/23 10:59:54;;;;;;;3.67;2.92;;;1.10;1.00;;;;;;5198944;28;20032;-47
2023/12/23 11:02:35;;;;;;;10.02;4.45;;;1.10;1.00;;;;;;5203136;28;20207;-48
2023/12/23 11:05:10;;;;;;;8.18;5.32;;;1.20;1.00;;;;;;5175005;28;20053;-49
2023/12/23 11:07:46;;;;;;;8.02;4.45;;;1.20;1.00;;;;;;5198662;28;20021;-50
2023/12/23 11:10:19;;;;;;;7.57;4.60;;;1.20;1.00;;;;;;5172127;28;20096;-50
2023/12/23 11:12:50;;;;;;;2.80;2.35;;;1.20;1.00;;;;;;5208100;28;20251;-49
2023/12/23 11:15:21;;;;;;;9.38;3.92;;;1.20;1.00;;;;;;5210494;28;20020;-49
2023/12/23 11:17:55;;;;;;;4.35;3.25;;;1.10;1.00;;;;;;5212249;28;20332;-49
2023/12/23 11:20:43;;;;;;;15.25;5.22;;;1.20;1.00;;;;;;5212190;28;20262;-50
2023/12/23 11:23:27;;;;;;;9.32;4.00;;;1.20;1.00;;;;;;5201967;28;20159;-50
2023/12/23 11:25:58;;;;;;;4.88;2.80;;;1.30;1.00;;;;;;5212743;28;20213;-52
2023/12/23 11:28:36;;;;;;;4.25;2.95;;;1.20;1.00;;;;;;5214692;28;20031;-52
2023/12/23 11:31:08;;;;;;;2.28;1.55;;;1.20;1.00;;;;;;5206474;28;20037;-52
2023/12/23 11:33:47;;;;;;;3.85;2.75;;;1.20;1.00;;;;;;5207400;28;20055;-51
2023/12/23 11:36:18;;;;;;;3.42;2.30;;;1.20;1.00;;;;;;5217805;28;20035;-56
2023/12/23 11:38:51;;;;;;;2.40;1.63;;;1.20;1.00;;;;;;5214281;28;20024;-51
2023/12/23 11:41:24;;;;;;;3.17;1.95;;;1.10;1.00;;;;;;5216747;28;20324;-51
2023/12/23 11:43:56;;;;;;;2.60;1.95;;;1.10;1.00;;;;;;5212055;28;20383;-51
2023/12/23 11:46:28;;;;;;;6.35;2.58;;;1.20;1.00;;;;;;5211276;28;20052;-58
2023/12/23 11:49:02;;;;;;;2.25;2.05;;;1.20;1.00;;;;;;5216702;28;20033;-55
2023/12/23 11:51:33;;;;;;;3.20;2.17;;;1.20;1.00;;;;;;5199551;28;20051;-54
2023/12/23 11:54:05;;;;;;;4.22;2.65;;;1.20;1.00;;;;;;5213033;28;20043;-53
2023/12/23 11:56:39;;;;;;;4.03;2.13;;;1.20;1.00;;;;;;5212133;28;20554;-53
2023/12/23 11:59:13;;;;;;;2.50;2.03;;;1.30;1.00;;;;;;5204186;28;20041;-53
2023/12/23 12:01:44;;;;;;;5.90;1.92;;;1.40;1.00;;;;;;5204452;28;20216;-51
2023/12/23 12:04:17;;;;;;;2.72;1.90;;;1.40;1.00;;;;;;5211258;28;20040;-52
2023/12/23 12:06:48;;;;;;;7.70;3.65;;;1.40;1.00;;;;;;5213126;28;20035;-53
2023/12/23 12:09:22;;;;;;;7.22;3.05;;;1.50;1.00;;;;;;5206234;28;20250;-51
2023/12/23 12:11:58;;;;;;;3.17;2.30;;;1.40;1.00;;;;;;5204644;28;20059;-53
2023/12/23 12:14:30;;;;;;;1.65;1.55;;;1.40;1.00;;;;;;5212741;28;20029;-52
2023/12/23 12:17:01;;;;;;;2.17;1.73;;;1.40;1.00;;;;;;5210660;28;20202;-51
2023/12/23 12:19:36;;;;;;;2.15;1.92;;;1.50;1.00;;;;;;5211811;28;20025;-51
2023/12/23 12:22:08;;;;;;;3.22;2.38;;;1.60;1.00;;;;;;5208822;28;20025;-50
2023/12/23 12:24:42;;;;;;;3.78;2.30;;;1.60;1.00;;;;;;5205727;28;20317;-51
2023/12/23 12:27:15;;;;;;;2.57;1.67;;;1.60;1.00;;;;;;5206708;28;20325;-50
2023/12/23 12:29:51;;;;;;;2.77;1.57;;;2.20;1.00;;;;;;5213520;28;20039;-52
2023/12/23 12:32:23;;;;;;;1.38;1.27;;;2.90;1.00;;;;;;5196127;28;20040;-51
2023/12/23 12:35:06;;;;;;;0.55;0.55;;;3.30;1.00;;;;;;5201263;28;20040;-51
2023/12/23 12:37:38;;;;;;;0.98;0.65;;;4.40;1.00;;;;;;5194465;28;20054;-52
2023/12/23 12:40:18;;;;;;;1.10;1.00;;;5.00;1.00;;;;;;5187505;28;20255;-50
2023/12/23 12:42:51;;;;;;;0.93;0.68;;;5.30;1.00;;;;;;5181521;28;20045;-50
2023/12/23 12:45:29;;;;;;;1.05;0.80;;;5.60;1.00;;;;;;5191746;28;20033;-51
2023/12/23 12:48:00;;;;;;;0.70;0.70;;;5.90;1.00;;;;;;5178573;28;20037;-52
2023/12/23 12:50:31;;;;;;;1.90;0.85;;;6.20;1.00;;;;;;5188200;28;20426;-51
2023/12/23 12:53:03;;;;;;;0.63;0.63;;;6.20;1.00;;;;;;5179440;28;20354;-51
2023/12/23 12:55:34;;;;;;;0.68;0.68;;;6.30;1.00;;;;;;5182808;28;20067;-52
2023/12/23 12:58:05;;;;;;;0.80;0.80;;;6.40;1.00;;;;;;5190723;28;20025;-50
2023/12/23 13:00:39;;;;;;;0.60;0.60;;;6.40;99.90;;;;;;5189312;28;20352;-49
2023/12/23 13:03:14;;;;;;;0.60;0.60;;;6.50;99.90;;;;;;5185918;28;20029;-49
2023/12/23 13:05:45;;;;;;;1.95;0.40;;;6.70;99.90;;;;;;5190088;28;20037;-47
2023/12/23 13:08:19;;;;;;;0.70;0.70;;;6.80;96.50;;;;;;5192219;28;20535;-48
2023/12/23 13:10:50;;;;;;;0.70;0.70;;;6.70;99.90;;;;;;5192009;28;20028;-48
2023/12/23 13:13:21;;;;;;;0.60;0.60;;;6.70;28.80;;;;;;5189607;28;20040;-48
2023/12/23 13:15:53;;;;;;;0.60;0.60;;;6.90;1.00;;;;;;5209854;28;20052;-47
2023/12/23 13:18:25;;;;;;;5.07;0.90;;;7.10;1.00;;;;;;5194738;28;20025;-47
2023/12/23 13:20:57;;;;;;;0.60;0.60;;;6.90;1.00;;;;;;5192554;28;20029;-47
2023/12/23 13:23:31;;;;;;;0.70;0.70;;;7.00;1.00;;;;;;5182321;28;20076;-51
2023/12/23 13:26:05;;;;;;;0.63;0.60;;;7.20;1.00;;;;;;5185110;28;20273;-46
2023/12/23 13:28:37;;;;;;;0.50;0.50;;;7.10;1.00;;;;;;5187057;28;20040;-46
2023/12/23 13:31:08;;;;;;;0.50;0.50;;;7.30;99.90;;;;;;5189332;28;20033;-47
2023/12/23 13:33:39;;;;;;;0.77;0.77;;;7.50;50.30;;;;;;5193726;28;20029;-46
2023/12/23 13:36:11;;;;;;;0.75;0.75;;;7.30;99.90;;;;;;5200500;28;20232;-46
2023/12/23 13:38:44;;;;;;;0.80;0.80;;;7.40;99.90;;;;;;5193139;28;20039;-43